createdAt,value
2022-08-09T00:01:54.091Z,15.91
2022-08-09T00:04:33.863Z,15.93
2022-08-09T00:06:57.027Z,15.90
2022-08-09T00:09:19.066Z,15.72
2022-08-09T00:12:02.950Z,15.66
2022-08-09T00:14:36.181Z,15.62
2022-08-09T00:16:59.387Z,15.65
2022-08-09T00:19:20.850Z,15.61
2022-08-09T00:21:56.089Z,15.60
2022-08-09T00:24:18.399Z,15.65
2022-08-09T00:26:41.572Z,15.54
2022-08-09T00:29:12.513Z,15.45
2022-08-09T00:31:59.060Z,15.46
2022-08-09T00:34:22.149Z,15.46
2022-08-09T00:36:48.832Z,15.34
2022-08-09T00:39:16.905Z,15.15
2022-08-09T00:44:10.934Z,15.10
2022-08-09T00:44:33.957Z,15.10
2022-08-09T00:47:04.767Z,15.15
2022-08-09T00:49:28.098Z,15.14
2022-08-09T00:51:54.602Z,15.14
2022-08-09T00:54:18.147Z,15.16
2022-08-09T00:56:39.608Z,15.03
2022-08-09T00:59:01.074Z,14.95
2022-08-09T01:01:32.248Z,14.88
2022-08-09T01:03:59.342Z,14.99
2022-08-09T01:06:54.886Z,14.94
2022-08-09T01:09:23.237Z,14.84
2022-08-09T01:12:04.376Z,14.71
2022-08-09T01:14:35.095Z,14.68
2022-08-09T01:17:04.653Z,14.71
2022-08-09T01:20:01.913Z,14.56
2022-08-09T01:22:35.921Z,14.52
2022-08-09T01:25:26.886Z,14.60
2022-08-09T01:27:52.736Z,14.62
2022-08-09T01:30:28.452Z,14.74
2022-08-09T01:32:58.041Z,14.61
2022-08-09T01:35:52.218Z,14.50
2022-08-09T01:38:20.561Z,14.47
2022-08-09T01:41:05.427Z,14.32
2022-08-09T01:43:28.565Z,14.23
2022-08-09T01:45:54.341Z,14.21
2022-08-09T01:48:24.059Z,14.23
2022-08-09T01:50:55.221Z,14.26
2022-08-09T01:53:21.516Z,14.32
2022-08-09T01:55:44.379Z,14.25
2022-08-09T01:58:10.146Z,14.27
2022-08-09T02:00:35.790Z,14.22
2022-08-09T02:02:58.082Z,14.22
2022-08-09T02:05:37.911Z,14.17
2022-08-09T02:08:39.897Z,14.08
2022-08-09T02:10:54.827Z,14.18
2022-08-09T02:13:19.475Z,14.16
2022-08-09T02:15:50.721Z,14.00
2022-08-09T02:18:15.311Z,13.89
2022-08-09T02:20:45.237Z,13.88
2022-08-09T02:23:12.646Z,14.00
2022-08-09T02:25:42.783Z,14.04
2022-08-09T02:28:49.088Z,13.78
2022-08-09T02:31:22.024Z,13.81
2022-08-09T02:34:07.598Z,13.90
2022-08-09T02:36:45.093Z,13.83
2022-08-09T02:39:33.721Z,13.84
2022-08-09T02:41:58.800Z,13.88
2022-08-09T02:44:29.412Z,13.97
2022-08-09T02:46:55.374Z,13.84
2022-08-09T02:49:19.448Z,13.67
2022-08-09T02:51:55.671Z,13.55
2022-08-09T02:54:19.383Z,13.53
2022-08-09T02:56:51.251Z,13.63
2022-08-09T02:59:26.408Z,13.65
2022-08-09T03:02:06.043Z,13.57
2022-08-09T03:04:31.886Z,13.54
2022-08-09T03:06:55.071Z,13.46
2022-08-09T03:09:18.125Z,13.44
2022-08-09T03:12:06.473Z,13.37
2022-08-09T03:14:28.148Z,13.22
2022-08-09T03:16:50.074Z,13.22
2022-08-09T03:19:14.553Z,13.27
2022-08-09T03:21:57.518Z,13.23
2022-08-09T03:24:31.534Z,13.20
2022-08-09T03:27:01.629Z,13.17
2022-08-09T03:29:24.381Z,13.09
2022-08-09T03:32:00.378Z,13.08
2022-08-09T03:34:22.348Z,13.16
2022-08-09T03:36:43.833Z,13.14
2022-08-09T03:39:19.913Z,13.07
2022-08-09T03:41:48.738Z,13.04
2022-08-09T03:44:10.340Z,13.09
2022-08-09T03:46:34.136Z,13.11
2022-08-09T03:48:59.145Z,13.12
2022-08-09T03:51:55.340Z,13.15
2022-08-09T03:54:11.508Z,13.23
2022-08-09T03:56:33.129Z,13.25
2022-08-09T03:58:55.670Z,13.33
2022-08-09T04:01:17.911Z,13.27
2022-08-09T04:04:01.443Z,13.10
2022-08-09T04:06:23.870Z,12.94
2022-08-09T04:08:46.554Z,12.81
2022-08-09T04:11:11.130Z,12.80
2022-08-09T04:14:36.640Z,12.84
2022-08-09T04:16:20.236Z,12.89
2022-08-09T04:18:42.792Z,12.93
2022-08-09T04:21:09.175Z,13.07
2022-08-09T04:23:30.642Z,13.02
2022-08-09T04:25:53.842Z,12.96
2022-08-09T04:28:15.326Z,12.83
2022-08-09T04:30:55.106Z,12.80
2022-08-09T04:33:17.392Z,12.82
2022-08-09T04:35:42.345Z,12.89
2022-08-09T04:38:03.952Z,12.96
2022-08-09T04:40:45.420Z,13.09
2022-08-09T04:43:07.596Z,13.19
2022-08-09T04:45:30.644Z,13.14
2022-08-09T04:48:01.144Z,13.08
2022-08-09T04:50:31.885Z,13.01
2022-08-09T04:52:56.626Z,12.93
2022-08-09T04:55:19.665Z,12.97
2022-08-09T04:57:53.870Z,13.03
2022-08-09T05:00:19.894Z,13.08
2022-08-09T05:02:44.179Z,13.11
2022-08-09T05:05:10.510Z,13.26
2022-08-09T05:07:32.268Z,13.25
2022-08-09T05:09:53.833Z,13.26
2022-08-09T05:12:17.495Z,13.32
2022-08-09T05:14:41.145Z,13.40
2022-08-09T05:17:02.876Z,13.45
2022-08-09T05:19:25.999Z,13.49
2022-08-09T05:21:55.322Z,13.54
2022-08-09T05:24:17.606Z,13.65
2022-08-09T05:26:46.258Z,13.74
2022-08-09T05:29:17.277Z,13.82
2022-08-09T05:31:46.771Z,13.87
2022-08-09T05:34:17.081Z,13.89
2022-08-09T05:36:39.058Z,13.97
2022-08-09T05:39:04.200Z,14.02
2022-08-09T05:41:26.502Z,14.12
2022-08-09T05:43:49.050Z,14.23
2022-08-09T05:46:11.386Z,14.32
2022-08-09T05:48:33.572Z,14.40
2022-08-09T05:51:12.037Z,14.50
2022-08-09T05:53:51.564Z,14.55
2022-08-09T05:56:18.427Z,14.66
2022-08-09T05:58:44.465Z,14.72
2022-08-09T06:01:06.668Z,14.81
2022-08-09T06:03:34.822Z,14.91
2022-08-09T06:06:06.581Z,15.00
2022-08-09T06:08:28.134Z,15.05
2022-08-09T06:10:50.054Z,15.13
2022-08-09T06:13:18.685Z,15.24
2022-08-09T06:15:42.091Z,15.33
2022-08-09T06:18:04.219Z,15.42
2022-08-09T06:20:26.527Z,15.50
2022-08-09T06:22:51.747Z,15.64
2022-08-09T06:25:16.344Z,15.73
2022-08-09T06:27:43.078Z,15.85
2022-08-09T06:30:13.943Z,15.95
2022-08-09T06:32:59.790Z,16.06
2022-08-09T06:35:17.294Z,16.16
2022-08-09T06:37:53.363Z,16.26
2022-08-09T06:40:23.983Z,16.38
2022-08-09T06:42:46.025Z,16.48
2022-08-09T06:46:03.409Z,16.60
2022-08-09T06:48:00.684Z,16.71
2022-08-09T06:50:23.193Z,16.84
2022-08-09T06:52:48.574Z,16.92
2022-08-09T06:55:12.770Z,17.09
2022-08-09T06:58:02.003Z,17.29
2022-08-09T07:00:52.679Z,17.41
2022-08-09T07:02:58.060Z,17.62
2022-08-09T07:05:19.561Z,17.78
2022-08-09T07:07:59.802Z,17.99
2022-08-09T07:10:31.445Z,18.07
2022-08-09T07:12:57.538Z,18.21
2022-08-09T07:16:35.130Z,18.48
2022-08-09T07:18:02.261Z,18.59
2022-08-09T07:20:25.814Z,18.83
2022-08-09T07:22:53.288Z,19.01
2022-08-09T07:25:15.752Z,19.18
2022-08-09T07:27:42.923Z,19.24
2022-08-09T07:30:15.289Z,19.38
2022-08-09T07:32:43.597Z,19.54
2022-08-09T07:35:11.568Z,19.63
2022-08-09T07:37:44.046Z,19.76
2022-08-09T07:40:07.015Z,19.93
2022-08-09T07:42:32.773Z,20.17
2022-08-09T07:44:57.300Z,20.32
2022-08-09T07:47:23.477Z,20.50
2022-08-09T07:49:52.240Z,20.65
2022-08-09T07:52:26.835Z,20.95
2022-08-09T07:54:51.401Z,21.03
2022-08-09T07:57:13.325Z,21.22
2022-08-09T07:59:51.055Z,21.31
2022-08-09T08:02:19.868Z,21.50
2022-08-09T08:04:41.798Z,21.76
2022-08-09T08:07:42.163Z,21.88
2022-08-09T08:10:05.660Z,22.06
2022-08-09T08:12:31.055Z,22.21
2022-08-09T08:14:52.730Z,22.29
2022-08-09T08:17:35.120Z,22.58
2022-08-09T08:19:56.046Z,22.71
2022-08-09T08:22:17.976Z,22.81
2022-08-09T08:24:49.096Z,23.00
2022-08-09T08:27:17.144Z,23.20
2022-08-09T08:29:48.530Z,23.41
2022-08-09T08:32:12.501Z,23.56
2022-08-09T08:34:40.605Z,23.78
2022-08-09T08:37:03.005Z,23.93
2022-08-09T08:39:24.567Z,24.13
2022-08-09T08:41:51.630Z,24.27
2022-08-09T08:44:14.497Z,24.39
2022-08-09T08:47:02.235Z,24.50
2022-08-09T08:49:26.797Z,24.69
2022-08-09T08:52:04.007Z,24.76
2022-08-09T08:54:31.798Z,24.91
2022-08-09T08:56:54.305Z,24.83
2022-08-09T08:59:19.243Z,24.91
2022-08-09T09:01:53.329Z,25.12
2022-08-09T09:04:26.998Z,25.32
2022-08-09T09:06:51.641Z,25.51
2022-08-09T09:09:21.091Z,25.58
2022-08-09T09:11:58.917Z,25.70
2022-08-09T09:14:23.702Z,25.80
2022-08-09T09:16:45.828Z,25.99
2022-08-09T09:22:28.894Z,26.19
2022-08-09T09:25:00.763Z,26.27
2022-08-09T09:28:04.249Z,26.47
2022-08-09T09:30:38.599Z,26.61
2022-08-09T09:33:15.472Z,26.63
2022-08-09T09:36:20.376Z,26.86
2022-08-09T09:38:44.364Z,26.83
2022-08-09T09:41:06.444Z,26.98
2022-08-09T09:43:41.261Z,26.89
2022-08-09T09:49:03.242Z,27.00
2022-08-09T09:51:38.614Z,27.08
2022-08-09T09:54:20.312Z,27.03
2022-08-09T09:56:53.294Z,27.25
2022-08-09T09:59:35.515Z,27.32
2022-08-09T10:02:00.944Z,27.54
2022-08-09T10:04:30.303Z,27.63
2022-08-09T10:06:54.466Z,27.66
2022-08-09T10:09:23.354Z,27.60
2022-08-09T10:12:00.242Z,27.50
2022-08-09T10:14:33.221Z,27.72
2022-08-09T10:17:05.278Z,27.84
2022-08-09T10:19:37.581Z,28.08
2022-08-09T10:21:59.608Z,28.11
2022-08-09T10:24:25.602Z,28.06
2022-08-09T10:26:58.346Z,28.09
2022-08-09T10:30:01.683Z,28.29
2022-08-09T10:34:46.095Z,28.79
2022-08-09T10:37:09.558Z,28.85
2022-08-09T10:39:40.952Z,28.99
2022-08-09T10:42:11.065Z,29.14
2022-08-09T10:44:34.294Z,29.39
2022-08-09T10:47:20.482Z,29.58
2022-08-09T10:50:14.760Z,29.84
2022-08-09T10:53:14.345Z,30.10
2022-08-09T10:55:55.477Z,30.17
2022-08-09T10:58:49.461Z,30.36
2022-08-09T11:03:15.302Z,30.68
2022-08-09T11:04:30.108Z,30.69
2022-08-09T11:07:00.700Z,30.53
2022-08-09T11:09:47.542Z,30.40
2022-08-09T11:12:29.825Z,30.37
2022-08-09T11:14:55.940Z,30.50
2022-08-09T11:17:21.710Z,30.71
2022-08-09T11:20:20.383Z,30.95
2022-08-09T11:22:44.822Z,31.21
2022-08-09T11:25:08.448Z,31.04
2022-08-09T11:28:04.706Z,30.92
2022-08-09T11:30:32.106Z,30.86
2022-08-09T11:33:07.231Z,30.89
2022-08-09T11:35:50.403Z,30.88
2022-08-09T11:38:22.582Z,30.97
2022-08-09T11:40:55.075Z,31.05
2022-08-09T11:43:38.763Z,31.09
2022-08-09T11:46:02.116Z,31.29
2022-08-09T11:48:28.189Z,31.51
2022-08-09T11:52:06.696Z,31.85
2022-08-09T11:54:01.016Z,32.27
2022-08-09T11:56:42.808Z,32.66
2022-08-09T11:59:10.561Z,32.81
2022-08-09T12:02:35.133Z,32.97
2022-08-09T12:04:32.286Z,33.51
2022-08-09T12:06:59.210Z,33.72
2022-08-09T12:09:33.657Z,33.98
2022-08-09T12:12:12.871Z,34.37
2022-08-09T12:14:40.851Z,34.51
2022-08-09T12:17:27.661Z,34.77
2022-08-09T12:19:59.364Z,34.71
2022-08-09T12:22:22.691Z,34.70
2022-08-09T12:24:47.634Z,34.47
2022-08-09T12:29:13.385Z,34.80
2022-08-09T12:30:39.005Z,34.89
2022-08-09T12:32:45.193Z,34.79
2022-08-09T12:35:12.547Z,34.47
2022-08-09T12:37:50.447Z,34.32
2022-08-09T12:40:15.073Z,34.01
2022-08-09T12:42:43.567Z,33.89
2022-08-09T12:45:07.141Z,33.66
2022-08-09T12:47:50.634Z,33.36
2022-08-09T12:50:19.825Z,33.83
2022-08-09T12:53:08.262Z,34.64
2022-08-09T12:56:14.001Z,35.84
2022-08-09T12:58:24.244Z,37.11
2022-08-09T13:00:48.944Z,38.15
2022-08-09T13:03:24.363Z,38.66
2022-08-09T13:05:52.434Z,38.58
2022-08-09T13:08:40.596Z,38.22
2022-08-09T13:11:22.621Z,37.85
2022-08-09T13:14:40.853Z,37.73
2022-08-09T13:16:49.553Z,37.44
2022-08-09T13:19:11.929Z,36.86
2022-08-09T13:22:37.693Z,36.31
2022-08-09T13:24:42.627Z,36.34
2022-08-09T13:26:58.482Z,37.04
2022-08-09T13:29:28.581Z,37.35
2022-08-09T13:32:14.220Z,38.25
2022-08-09T13:34:40.993Z,38.85
2022-08-09T13:37:05.309Z,38.94
2022-08-09T13:41:19.199Z,39.66
2022-08-09T13:42:17.810Z,39.84
2022-08-09T13:44:43.587Z,40.77
2022-08-09T13:47:29.130Z,41.14
2022-08-09T13:49:58.092Z,41.98
2022-08-09T13:52:23.027Z,42.09
2022-08-09T13:54:58.751Z,41.55
2022-08-09T13:57:36.520Z,40.44
2022-08-09T14:00:01.912Z,39.35
2022-08-09T14:02:25.867Z,38.59
2022-08-09T14:04:59.750Z,38.36
2022-08-09T14:07:21.865Z,39.01
2022-08-09T14:09:53.281Z,39.63
2022-08-09T14:12:17.048Z,39.73
2022-08-09T14:14:39.928Z,39.91
2022-08-09T14:17:05.509Z,40.30
2022-08-09T14:19:27.206Z,41.42
2022-08-09T14:21:55.276Z,41.56
2022-08-09T14:24:22.296Z,42.14
2022-08-09T14:26:53.713Z,42.03
2022-08-09T14:30:18.599Z,42.14
2022-08-09T14:31:58.891Z,41.45
2022-08-09T14:34:33.124Z,40.99
2022-08-09T14:36:55.643Z,41.34
2022-08-09T14:39:17.352Z,41.15
2022-08-09T14:41:40.248Z,41.82
2022-08-09T14:44:03.711Z,42.11
2022-08-09T14:46:54.999Z,42.64
2022-08-09T14:49:06.719Z,42.80
2022-08-09T14:51:42.317Z,42.70
2022-08-09T14:54:04.255Z,42.47
2022-08-09T14:56:26.796Z,41.56
2022-08-09T14:58:48.568Z,41.00
2022-08-09T15:01:17.703Z,40.38
2022-08-09T15:03:42.580Z,41.07
2022-08-09T15:06:05.235Z,41.28
2022-08-09T15:08:26.691Z,41.52
2022-08-09T15:11:00.059Z,40.92
2022-08-09T15:13:23.765Z,40.47
2022-08-09T15:15:45.413Z,39.44
2022-08-09T15:18:13.933Z,39.41
2022-08-09T15:22:00.987Z,39.55
2022-08-09T15:24:02.072Z,39.38
2022-08-09T15:25:59.233Z,39.35
2022-08-09T15:28:27.354Z,39.55
2022-08-09T15:31:03.340Z,39.98
2022-08-09T15:34:15.511Z,40.00
2022-08-09T15:36:12.915Z,40.26
2022-08-09T15:38:36.229Z,40.25
2022-08-09T15:40:57.962Z,40.53
2022-08-09T15:43:19.396Z,40.77
2022-08-09T15:46:07.662Z,41.01
2022-08-09T15:48:30.786Z,40.92
2022-08-09T15:50:53.455Z,40.70
2022-08-09T15:54:02.125Z,40.60
2022-08-09T15:58:39.779Z,40.30
2022-08-09T16:01:03.140Z,40.08
2022-08-09T16:03:29.453Z,39.99
2022-08-09T16:06:02.914Z,39.99
2022-08-09T16:08:30.589Z,40.07
2022-08-09T16:10:55.663Z,39.99
2022-08-09T16:13:20.642Z,39.97
2022-08-09T16:16:10.119Z,39.98
2022-08-09T16:18:34.169Z,39.76
2022-08-09T16:20:55.647Z,39.67
2022-08-09T16:23:21.729Z,39.79
2022-08-09T16:25:43.337Z,39.46
2022-08-09T16:28:12.241Z,39.49
2022-08-09T16:30:35.266Z,39.46
2022-08-09T16:33:08.346Z,39.61
2022-08-09T16:35:57.476Z,39.39
2022-08-09T16:38:11.331Z,39.29
2022-08-09T16:40:40.648Z,39.19
2022-08-09T16:43:04.335Z,38.95
2022-08-09T16:45:27.243Z,39.09
2022-08-09T16:48:40.668Z,38.80
2022-08-09T16:50:34.203Z,38.89
2022-08-09T16:52:56.186Z,38.63
2022-08-09T16:55:18.295Z,38.62
2022-08-09T16:58:08.814Z,38.23
2022-08-09T17:00:22.281Z,37.89
2022-08-09T17:02:43.972Z,37.74
2022-08-09T17:05:09.500Z,37.44
2022-08-09T17:08:46.847Z,37.32
2022-08-09T17:10:17.902Z,37.26
2022-08-09T17:12:42.810Z,37.22
2022-08-09T17:15:31.334Z,37.12
2022-08-09T17:17:51.617Z,36.92
2022-08-09T17:20:30.430Z,36.71
2022-08-09T17:22:58.955Z,36.46
2022-08-09T17:25:22.202Z,36.31
2022-08-09T17:27:49.397Z,36.11
2022-08-09T17:30:15.254Z,35.82
2022-08-09T17:32:38.692Z,35.61
2022-08-09T17:35:07.738Z,35.38
2022-08-09T17:38:11.869Z,35.23
2022-08-09T17:40:17.970Z,34.95
2022-08-09T17:42:41.290Z,34.68
2022-08-09T17:45:06.498Z,34.19
2022-08-09T17:47:28.929Z,33.89
2022-08-09T17:49:57.098Z,33.74
2022-08-09T17:52:27.129Z,33.61
2022-08-09T17:54:48.629Z,33.46
2022-08-09T17:57:20.727Z,33.40
2022-08-09T18:00:05.379Z,33.25
2022-08-09T18:02:30.334Z,33.22
2022-08-09T18:04:56.978Z,32.98
2022-08-09T18:07:23.095Z,32.89
2022-08-09T18:09:45.168Z,32.57
2022-08-09T18:12:30.072Z,32.10
2022-08-09T18:15:02.781Z,31.86
2022-08-09T18:18:03.985Z,31.52
2022-08-09T18:20:56.855Z,31.38
2022-08-09T18:22:51.506Z,30.90
2022-08-09T18:25:12.986Z,30.74
2022-08-09T18:28:02.020Z,30.40
2022-08-09T18:30:38.508Z,30.03
2022-08-09T18:32:57.974Z,29.81
2022-08-09T18:35:19.792Z,29.61
2022-08-09T18:38:01.240Z,29.45
2022-08-09T18:40:27.035Z,29.22
2022-08-09T18:42:48.676Z,29.09
2022-08-09T18:45:10.623Z,28.89
2022-08-09T18:47:43.754Z,28.70
2022-08-09T18:50:10.047Z,28.55
2022-08-09T18:52:34.715Z,28.39
2022-08-09T18:54:56.794Z,28.25
2022-08-09T18:57:19.854Z,28.13
2022-08-09T18:59:48.848Z,27.98
2022-08-09T19:02:11.137Z,27.78
2022-08-09T19:04:36.407Z,27.64
2022-08-09T19:06:57.880Z,27.49
2022-08-09T19:09:34.107Z,27.37
2022-08-09T19:12:01.329Z,27.19
2022-08-09T19:14:29.218Z,27.04
2022-08-09T19:16:51.150Z,26.94
2022-08-09T19:19:25.829Z,26.80
2022-08-09T19:22:04.384Z,26.69
2022-08-09T19:24:37.669Z,26.57
2022-08-09T19:27:09.274Z,26.43
2022-08-09T19:29:55.124Z,26.31
2022-08-09T19:32:14.267Z,26.17
2022-08-09T19:34:42.772Z,25.98
2022-08-09T19:37:05.143Z,25.81
2022-08-09T19:39:29.307Z,25.66
2022-08-09T19:42:05.848Z,25.54
2022-08-09T19:44:28.705Z,25.43
2022-08-09T19:46:53.290Z,25.33
2022-08-09T19:50:06.571Z,25.19
2022-08-09T19:51:57.050Z,25.10
2022-08-09T19:54:18.679Z,24.92
2022-08-09T19:56:46.286Z,24.82
2022-08-09T19:59:39.511Z,24.75
2022-08-09T20:02:05.322Z,24.54
2022-08-09T20:04:37.433Z,24.38
2022-08-09T20:07:03.998Z,24.30
2022-08-09T20:09:45.224Z,24.21
2022-08-09T20:12:08.769Z,24.09
2022-08-09T20:14:50.249Z,24.07
2022-08-09T20:17:14.732Z,23.95
2022-08-09T20:19:48.631Z,23.78
2022-08-09T20:22:15.886Z,23.59
2022-08-09T20:24:40.960Z,23.42
2022-08-09T20:27:05.751Z,23.34
2022-08-09T20:29:37.375Z,23.28
2022-08-09T20:32:32.891Z,23.22
2022-08-09T20:34:40.741Z,22.95
2022-08-09T20:37:02.365Z,22.80
2022-08-09T20:40:14.120Z,22.71
2022-08-09T20:42:06.827Z,22.55
2022-08-09T20:44:33.257Z,22.49
2022-08-09T20:46:57.921Z,22.43
2022-08-09T20:49:19.454Z,22.23
2022-08-09T20:51:42.086Z,22.16
2022-08-09T20:54:03.904Z,22.07
2022-08-09T20:56:26.417Z,22.04
2022-08-09T20:58:54.262Z,21.96
2022-08-09T21:01:34.817Z,21.83
2022-08-09T21:05:49.422Z,21.74
2022-08-09T21:06:44.061Z,21.71
2022-08-09T21:09:06.552Z,21.77
2022-08-09T21:14:17.331Z,21.47
2022-08-09T21:16:38.953Z,21.40
2022-08-09T21:20:18.437Z,21.20
2022-08-09T21:21:56.716Z,21.04
2022-08-09T21:24:28.328Z,20.96
2022-08-09T21:26:51.533Z,20.93
2022-08-09T21:29:13.614Z,20.95
2022-08-09T21:31:49.469Z,20.85
2022-08-09T21:34:11.682Z,20.68
2022-08-09T21:36:33.419Z,20.50
2022-08-09T21:38:57.338Z,20.42
2022-08-09T21:41:19.625Z,20.38
2022-08-09T21:43:58.243Z,20.38
2022-08-09T21:46:19.872Z,20.27
2022-08-09T21:48:42.754Z,20.14
2022-08-09T21:51:13.454Z,20.04
2022-08-09T21:53:40.905Z,20.01
2022-08-09T21:56:03.643Z,20.02
2022-08-09T21:58:29.195Z,19.87
2022-08-09T22:00:52.722Z,19.87
2022-08-09T22:03:25.309Z,19.86
2022-08-09T22:05:51.356Z,19.91
2022-08-09T22:08:16.281Z,19.80
2022-08-09T22:11:26.488Z,19.75
2022-08-09T22:13:19.517Z,19.59
2022-08-09T22:15:41.073Z,19.52
2022-08-09T22:18:03.209Z,19.56
2022-08-09T22:20:27.591Z,19.51
2022-08-09T22:22:52.892Z,19.44
2022-08-09T22:26:08.690Z,19.26
2022-08-09T22:27:58.492Z,19.20
2022-08-09T22:30:26.316Z,19.32
2022-08-09T22:32:54.990Z,19.09
2022-08-09T22:36:03.150Z,19.05
2022-08-09T22:38:06.956Z,18.92
2022-08-09T22:40:29.383Z,18.98
2022-08-09T22:42:55.709Z,18.87
2022-08-09T22:48:13.370Z,18.78
2022-08-09T22:48:34.330Z,18.68
2022-08-09T22:50:41.435Z,18.54
2022-08-09T22:53:14.800Z,18.49
2022-08-09T22:56:06.672Z,18.45
2022-08-09T22:58:20.200Z,18.45
2022-08-09T23:00:54.239Z,18.58
2022-08-09T23:03:16.602Z,18.45
2022-08-09T23:05:58.076Z,18.43
2022-08-09T23:08:38.243Z,18.28
2022-08-09T23:10:59.728Z,18.15
2022-08-09T23:13:21.188Z,18.19
2022-08-09T23:15:42.703Z,18.04
2022-08-09T23:18:04.243Z,18.08
2022-08-09T23:20:26.226Z,17.96
2022-08-09T23:22:47.936Z,17.94
2022-08-09T23:25:10.934Z,17.92
2022-08-09T23:27:33.018Z,18.07
2022-08-09T23:29:54.767Z,17.88
2022-08-09T23:32:16.423Z,17.86
2022-08-09T23:34:38.057Z,17.90
2022-08-09T23:36:59.603Z,17.84
2022-08-09T23:39:21.136Z,17.73
2022-08-09T23:41:42.680Z,17.69
2022-08-09T23:44:04.690Z,17.81
2022-08-09T23:46:27.822Z,17.69
2022-08-09T23:48:49.303Z,17.56
2022-08-09T23:51:10.792Z,17.55
2022-08-09T23:53:37.666Z,17.43
2022-08-09T23:55:59.961Z,17.38
2022-08-09T23:58:27.606Z,17.48
